createdAt,value
2019-02-10T00:01:00.737Z,9.33
2019-02-10T00:03:29.290Z,9.50
2019-02-10T00:05:57.865Z,8.57
2019-02-10T00:08:26.413Z,11.27
2019-02-10T00:10:54.926Z,10.87
2019-02-10T00:13:27.691Z,9.43
2019-02-10T00:15:58.866Z,9.93
2019-02-10T00:18:27.483Z,8.03
2019-02-10T00:20:56.194Z,5.47
2019-02-10T00:23:24.813Z,10.37
2019-02-10T00:25:53.468Z,10.53
2019-02-10T00:28:22.024Z,10.87
2019-02-10T00:30:50.746Z,8.63
2019-02-10T00:33:19.371Z,7.90
2019-02-10T00:35:47.920Z,7.27
2019-02-10T00:38:16.498Z,8.10
2019-02-10T00:40:45.081Z,11.47
2019-02-10T00:43:13.616Z,8.80
2019-02-10T00:45:42.169Z,11.37
2019-02-10T00:48:10.754Z,11.60
2019-02-10T00:50:39.394Z,6.00
2019-02-10T00:53:07.974Z,9.87
2019-02-10T00:55:36.518Z,5.30
2019-02-10T00:58:05.088Z,9.87
2019-02-10T01:00:33.639Z,9.83
2019-02-10T01:03:02.218Z,9.57
2019-02-10T01:05:30.847Z,13.47
2019-02-10T01:07:59.420Z,8.53
2019-02-10T01:10:28.714Z,10.77
2019-02-10T01:12:57.434Z,9.63
2019-02-10T01:15:25.990Z,11.77
2019-02-10T01:17:54.616Z,10.83
2019-02-10T01:20:23.219Z,6.83
2019-02-10T01:22:51.783Z,6.70
2019-02-10T01:25:20.413Z,10.77
2019-02-10T01:27:49.055Z,7.87
2019-02-10T01:30:17.745Z,8.20
2019-02-10T01:32:46.321Z,8.63
2019-02-10T01:35:14.939Z,6.83
2019-02-10T01:37:43.505Z,9.33
2019-02-10T01:40:12.227Z,6.83
2019-02-10T01:42:40.852Z,11.10
2019-02-10T01:45:11.865Z,8.13
2019-02-10T01:47:40.548Z,10.40
2019-02-10T01:50:10.971Z,11.63
2019-02-10T01:52:39.662Z,8.40
2019-02-10T01:55:12.600Z,8.50
2019-02-10T01:57:41.282Z,4.47
2019-02-10T02:00:13.158Z,7.83
2019-02-10T02:02:41.702Z,8.17
2019-02-10T02:05:10.410Z,8.40
2019-02-10T02:07:39.094Z,8.20
2019-02-10T02:10:10.227Z,8.77
2019-02-10T02:12:38.774Z,5.77
2019-02-10T02:15:10.254Z,6.63
2019-02-10T02:17:38.798Z,10.20
2019-02-10T02:20:08.923Z,6.33
2019-02-10T02:22:37.475Z,6.23
2019-02-10T02:25:11.319Z,8.57
2019-02-10T02:27:39.995Z,6.07
2019-02-10T02:30:11.503Z,4.03
2019-02-10T02:32:40.223Z,9.43
2019-02-10T02:35:09.434Z,8.77
2019-02-10T02:37:38.122Z,4.57
2019-02-10T02:40:09.126Z,7.07
2019-02-10T02:42:37.671Z,8.40
2019-02-10T02:45:08.769Z,4.73
2019-02-10T02:47:37.314Z,5.63
2019-02-10T02:50:08.341Z,9.23
2019-02-10T02:52:36.873Z,9.07
2019-02-10T02:55:07.314Z,7.07
2019-02-10T02:57:35.925Z,5.77
2019-02-10T03:00:06.133Z,6.63
2019-02-10T03:02:34.602Z,4.57
2019-02-10T03:05:03.242Z,6.67
2019-02-10T03:07:31.785Z,5.57
2019-02-10T03:10:00.443Z,5.97
2019-02-10T03:12:28.995Z,4.90
2019-02-10T03:14:57.567Z,5.47
2019-02-10T03:17:26.114Z,3.53
2019-02-10T03:19:54.686Z,5.33
2019-02-10T03:22:23.294Z,3.57
2019-02-10T03:24:51.867Z,5.80
2019-02-10T03:27:20.423Z,6.07
2019-02-10T03:29:48.966Z,6.63
2019-02-10T03:32:17.612Z,4.40
2019-02-10T03:34:46.161Z,4.03
2019-02-10T03:37:14.761Z,3.80
2019-02-10T03:39:44.242Z,4.37
2019-02-10T03:42:12.840Z,3.27
2019-02-10T03:44:41.408Z,4.67
2019-02-10T03:47:09.982Z,3.90
2019-02-10T03:49:38.529Z,4.83
2019-02-10T03:52:07.110Z,7.07
2019-02-10T03:54:35.656Z,5.67
2019-02-10T03:57:04.217Z,4.90
2019-02-10T03:59:33.142Z,4.73
2019-02-10T04:02:01.665Z,3.20
2019-02-10T04:04:30.229Z,4.60
2019-02-10T04:06:58.797Z,4.43
2019-02-10T04:09:27.272Z,5.37
2019-02-10T04:11:55.842Z,4.17
2019-02-10T04:14:24.382Z,5.63
2019-02-10T04:16:52.949Z,4.77
2019-02-10T04:19:21.420Z,5.17
2019-02-10T04:21:49.985Z,6.20
2019-02-10T04:24:18.459Z,6.67
2019-02-10T04:26:47.033Z,5.30
2019-02-10T04:29:15.573Z,7.20
2019-02-10T04:31:44.077Z,6.17
2019-02-10T04:34:12.614Z,5.10
2019-02-10T04:36:41.186Z,3.67
2019-02-10T04:39:09.733Z,9.83
2019-02-10T04:41:38.326Z,4.27
2019-02-10T04:44:06.874Z,8.63
2019-02-10T04:46:35.452Z,4.87
2019-02-10T04:49:03.990Z,4.87
2019-02-10T04:51:32.535Z,5.80
2019-02-10T04:54:01.106Z,6.40
2019-02-10T04:56:29.641Z,4.17
2019-02-10T04:58:58.143Z,6.40
2019-02-10T05:01:26.686Z,2.70
2019-02-10T05:03:55.323Z,5.80
2019-02-10T05:06:23.880Z,4.07
2019-02-10T05:08:52.440Z,4.40
2019-02-10T05:11:20.977Z,4.90
2019-02-10T05:13:49.544Z,3.70
2019-02-10T05:16:18.014Z,5.13
2019-02-10T05:18:46.591Z,5.63
2019-02-10T05:21:15.145Z,3.97
2019-02-10T05:23:43.730Z,5.47
2019-02-10T05:26:12.269Z,3.30
2019-02-10T05:28:40.850Z,4.03
2019-02-10T05:31:09.442Z,4.10
2019-02-10T05:33:38.023Z,4.00
2019-02-10T05:36:06.566Z,4.13
2019-02-10T05:38:35.158Z,5.03
2019-02-10T05:41:03.713Z,3.00
2019-02-10T05:43:32.294Z,3.83
2019-02-10T05:46:00.841Z,3.60
2019-02-10T05:48:29.429Z,3.67
2019-02-10T05:50:57.980Z,2.90
2019-02-10T05:53:27.539Z,3.53
2019-02-10T05:55:56.109Z,4.70
2019-02-10T05:58:24.690Z,3.83
2019-02-10T06:00:53.243Z,3.77
2019-02-10T06:03:21.825Z,3.73
2019-02-10T06:05:50.377Z,3.03
2019-02-10T06:08:18.946Z,3.83
2019-02-10T06:10:47.494Z,3.13
2019-02-10T06:13:16.082Z,2.57
2019-02-10T06:15:44.617Z,4.00
2019-02-10T06:18:13.134Z,3.87
2019-02-10T06:20:41.698Z,4.30
2019-02-10T06:23:10.241Z,3.77
2019-02-10T06:25:38.816Z,4.13
2019-02-10T06:28:07.363Z,2.80
2019-02-10T06:30:35.946Z,4.37
2019-02-10T06:33:04.491Z,2.30
2019-02-10T06:35:33.066Z,5.20
2019-02-10T06:38:01.610Z,2.53
2019-02-10T06:40:30.209Z,3.10
2019-02-10T06:42:58.745Z,1.90
2019-02-10T06:45:27.323Z,1.70
2019-02-10T06:47:57.667Z,2.23
2019-02-10T06:50:26.090Z,1.90
2019-02-10T06:52:54.643Z,3.83
2019-02-10T06:55:23.223Z,2.40
2019-02-10T06:57:51.755Z,3.57
2019-02-10T07:00:21.963Z,2.23
2019-02-10T07:03:29.663Z,3.03
2019-02-10T07:05:58.251Z,1.37
2019-02-10T07:08:30.637Z,2.13
2019-02-10T07:10:57.014Z,1.83
2019-02-10T07:13:34.549Z,2.77
2019-02-10T07:16:31.062Z,2.00
2019-02-10T07:19:33.962Z,1.93
2019-02-10T07:22:21.847Z,2.37
2019-02-10T07:24:59.073Z,2.87
2019-02-10T07:27:28.178Z,8.37
2019-02-10T07:30:05.627Z,2.07
2019-02-10T07:32:37.274Z,1.67
2019-02-10T07:35:25.274Z,2.23
2019-02-10T07:38:02.810Z,1.20
2019-02-10T07:40:35.011Z,2.03
2019-02-10T07:43:29.021Z,2.50
2019-02-10T07:46:18.165Z,2.70
2019-02-10T07:49:07.178Z,2.17
2019-02-10T07:51:45.069Z,2.37
2019-02-10T07:54:25.362Z,1.87
2019-02-10T07:57:02.661Z,2.40
2019-02-10T07:59:52.061Z,2.10
2019-02-10T08:02:26.499Z,3.47
2019-02-10T08:05:20.511Z,2.00
2019-02-10T08:08:04.001Z,3.77
2019-02-10T08:10:53.392Z,8.13
2019-02-10T08:13:48.949Z,2.07
2019-02-10T08:16:20.569Z,3.10
2019-02-10T08:19:00.332Z,3.43
2019-02-10T08:21:37.921Z,2.67
2019-02-10T08:24:34.899Z,2.27
2019-02-10T08:27:18.138Z,3.40
2019-02-10T08:30:18.029Z,2.57
2019-02-10T08:33:17.821Z,3.03
2019-02-10T08:35:49.367Z,3.13
2019-02-10T08:38:21.007Z,3.70
2019-02-10T08:41:06.769Z,3.13
2019-02-10T08:43:49.980Z,2.80
2019-02-10T08:46:24.507Z,3.63
2019-02-10T08:49:04.642Z,3.27
2019-02-10T08:51:54.261Z,3.87
2019-02-10T08:54:22.807Z,3.90
2019-02-10T08:56:51.370Z,3.30
2019-02-10T08:59:19.950Z,4.60
2019-02-10T09:01:48.499Z,2.30
2019-02-10T09:04:17.081Z,4.17
2019-02-10T09:06:45.626Z,3.03
2019-02-10T09:09:14.206Z,3.03
2019-02-10T09:11:42.760Z,3.87
2019-02-10T09:14:11.321Z,3.33
2019-02-10T09:16:39.792Z,3.90
2019-02-10T09:19:08.370Z,7.07
2019-02-10T09:21:36.985Z,3.20
2019-02-10T09:24:05.549Z,3.13
2019-02-10T09:26:34.080Z,3.80
2019-02-10T09:29:02.582Z,5.27
2019-02-10T09:31:31.121Z,2.90
2019-02-10T09:33:59.698Z,2.67
2019-02-10T09:36:28.241Z,3.43
2019-02-10T09:38:56.751Z,2.73
2019-02-10T09:41:25.298Z,1.70
2019-02-10T09:43:53.874Z,3.53
2019-02-10T09:46:22.416Z,2.20
2019-02-10T09:48:50.986Z,2.83
2019-02-10T09:51:19.537Z,2.93
2019-02-10T09:53:48.101Z,5.93
2019-02-10T09:56:16.658Z,2.83
2019-02-10T09:58:45.235Z,2.80
2019-02-10T10:01:14.796Z,3.50
2019-02-10T10:03:43.357Z,4.00
2019-02-10T10:06:11.899Z,3.53
2019-02-10T10:08:40.465Z,1.63
2019-02-10T10:11:08.933Z,3.40
2019-02-10T10:13:37.501Z,6.40
2019-02-10T10:16:06.046Z,5.50
2019-02-10T10:18:34.554Z,5.13
2019-02-10T10:21:03.095Z,3.40
2019-02-10T10:23:31.660Z,4.67
2019-02-10T10:26:00.290Z,2.47
2019-02-10T10:28:28.833Z,2.67
2019-02-10T10:30:57.343Z,5.83
2019-02-10T10:33:25.885Z,2.67
2019-02-10T10:35:54.466Z,3.83
2019-02-10T10:38:23.009Z,2.93
2019-02-10T10:40:51.583Z,2.80
2019-02-10T10:43:20.145Z,2.73
2019-02-10T10:45:48.729Z,4.17
2019-02-10T10:48:17.275Z,4.80
2019-02-10T10:50:45.845Z,2.10
2019-02-10T10:53:14.313Z,2.60
2019-02-10T10:55:42.815Z,2.00
2019-02-10T10:58:11.355Z,3.07
2019-02-10T11:00:39.927Z,3.17
2019-02-10T11:03:08.475Z,2.90
2019-02-10T11:05:37.113Z,2.67
2019-02-10T11:08:05.589Z,2.77
2019-02-10T11:10:34.152Z,2.03
2019-02-10T11:13:02.689Z,2.83
2019-02-10T11:15:31.262Z,3.57
2019-02-10T11:17:59.734Z,3.47
2019-02-10T11:20:28.301Z,1.93
2019-02-10T11:22:56.850Z,1.87
2019-02-10T11:25:25.425Z,2.60
2019-02-10T11:27:53.970Z,2.27
2019-02-10T11:30:22.542Z,3.77
2019-02-10T11:32:51.014Z,3.97
2019-02-10T11:35:19.591Z,3.70
2019-02-10T11:37:48.125Z,3.33
2019-02-10T11:40:16.711Z,8.43
2019-02-10T11:42:45.257Z,2.73
2019-02-10T11:45:14.846Z,2.70
2019-02-10T11:47:43.419Z,3.67
2019-02-10T11:50:13.501Z,2.83
2019-02-10T11:52:42.210Z,4.63
2019-02-10T11:55:11.806Z,3.13
2019-02-10T11:57:40.381Z,3.20
2019-02-10T12:00:14.222Z,2.80
2019-02-10T12:02:42.798Z,2.87
2019-02-10T12:05:11.786Z,2.90
2019-02-10T12:07:40.359Z,3.80
2019-02-10T12:10:10.653Z,3.17
2019-02-10T12:12:39.228Z,4.57
2019-02-10T12:15:15.003Z,2.90
2019-02-10T12:17:43.638Z,3.00
2019-02-10T12:20:14.587Z,2.20
2019-02-10T12:22:49.890Z,2.37
2019-02-10T12:25:13.456Z,3.70
2019-02-10T12:27:42.027Z,2.13
2019-02-10T12:30:13.758Z,3.57
2019-02-10T12:32:42.400Z,3.53
2019-02-10T12:35:11.877Z,3.60
2019-02-10T12:37:40.531Z,2.77
2019-02-10T12:40:10.206Z,3.97
2019-02-10T12:42:38.931Z,3.30
2019-02-10T12:45:12.380Z,1.90
2019-02-10T12:47:40.974Z,3.27
2019-02-10T12:50:15.717Z,5.47
2019-02-10T12:52:44.299Z,2.23
2019-02-10T12:55:13.182Z,3.57
2019-02-10T12:57:41.826Z,2.43
2019-02-10T13:00:17.587Z,2.70
2019-02-10T13:02:46.223Z,2.57
2019-02-10T13:05:14.842Z,2.57
2019-02-10T13:07:43.458Z,3.47
2019-02-10T13:10:13.390Z,2.20
2019-02-10T13:12:41.945Z,3.40
2019-02-10T13:15:11.625Z,2.70
2019-02-10T13:17:40.126Z,2.87
2019-02-10T13:20:12.951Z,1.83
2019-02-10T13:22:41.660Z,3.63
2019-02-10T13:25:12.520Z,20.17
2019-02-10T13:27:41.092Z,2.70
2019-02-10T13:30:17.078Z,2.67
2019-02-10T13:32:45.643Z,1.93
2019-02-10T13:35:14.340Z,1.20
2019-02-10T13:37:42.914Z,2.23
2019-02-10T13:40:17.297Z,2.10
2019-02-10T13:42:45.935Z,0.83
2019-02-10T13:45:14.583Z,1.20
2019-02-10T13:47:43.142Z,0.83
2019-02-10T13:50:16.727Z,1.17
2019-02-10T13:52:45.273Z,1.43
2019-02-10T13:55:15.018Z,1.73
2019-02-10T13:57:43.707Z,5.60
2019-02-10T14:00:20.938Z,2.93
2019-02-10T14:02:49.487Z,1.47
2019-02-10T14:05:18.057Z,2.07
2019-02-10T14:07:46.598Z,2.17
2019-02-10T14:10:24.725Z,2.90
2019-02-10T14:12:46.602Z,2.17
2019-02-10T14:15:19.534Z,2.13
2019-02-10T14:17:48.084Z,2.90
2019-02-10T14:20:17.791Z,3.43
2019-02-10T14:22:46.333Z,5.27
2019-02-10T14:25:15.035Z,3.53
2019-02-10T14:27:43.724Z,3.83
2019-02-10T14:30:16.832Z,3.07
2019-02-10T14:32:45.143Z,2.37
2019-02-10T14:35:13.858Z,2.33
2019-02-10T14:37:42.411Z,1.57
2019-02-10T14:40:11.322Z,0.73
2019-02-10T14:42:39.880Z,1.00
2019-02-10T14:45:12.852Z,1.53
2019-02-10T14:47:41.530Z,1.00
2019-02-10T14:50:15.687Z,2.00
2019-02-10T14:52:44.241Z,1.03
2019-02-10T14:55:12.814Z,1.17
2019-02-10T14:57:41.377Z,0.60
2019-02-10T15:00:12.561Z,1.07
2019-02-10T15:02:41.116Z,0.93
2019-02-10T15:05:13.641Z,1.70
2019-02-10T15:07:42.272Z,1.47
2019-02-10T15:10:25.684Z,1.20
2019-02-10T15:12:54.163Z,0.70
2019-02-10T15:15:22.737Z,1.10
2019-02-10T15:17:51.520Z,0.57
2019-02-10T15:20:20.515Z,0.80
2019-02-10T15:22:49.110Z,0.70
2019-02-10T15:25:18.263Z,0.50
2019-02-10T15:27:47.629Z,1.90
2019-02-10T15:30:18.305Z,1.73
2019-02-10T15:32:47.348Z,1.17
2019-02-10T15:35:15.963Z,0.90
2019-02-10T15:37:44.997Z,1.43
2019-02-10T15:40:13.918Z,0.70
2019-02-10T15:42:43.093Z,0.53
2019-02-10T15:45:13.610Z,1.43
2019-02-10T15:47:42.077Z,0.47
2019-02-10T15:50:15.034Z,0.70
2019-02-10T15:52:44.096Z,0.80
2019-02-10T15:55:13.334Z,2.00
2019-02-10T15:57:42.050Z,0.73
2019-02-10T16:00:29.990Z,1.83
2019-02-10T16:03:02.393Z,1.43
2019-02-10T16:05:32.029Z,1.57
2019-02-10T16:08:01.293Z,0.50
2019-02-10T16:10:30.743Z,0.60
2019-02-10T16:13:01.517Z,0.40
2019-02-10T16:15:34.033Z,0.97
2019-02-10T16:18:03.646Z,1.23
2019-02-10T16:20:36.609Z,0.20
2019-02-10T16:23:05.446Z,0.60
2019-02-10T16:25:40.835Z,0.70
2019-02-10T16:28:09.413Z,0.40
2019-02-10T16:30:42.051Z,0.83
2019-02-10T16:33:12.217Z,1.20
2019-02-10T16:35:45.404Z,0.47
2019-02-10T16:38:15.098Z,0.97
2019-02-10T16:40:43.692Z,0.50
2019-02-10T16:43:12.233Z,2.03
2019-02-10T16:45:40.821Z,0.63
2019-02-10T16:48:09.438Z,1.77
2019-02-10T16:50:38.027Z,1.33
2019-02-10T16:53:06.582Z,0.90
2019-02-10T16:55:40.687Z,1.80
2019-02-10T16:58:09.579Z,2.27
2019-02-10T17:00:38.174Z,0.70
2019-02-10T17:03:07.819Z,1.03
2019-02-10T17:05:36.506Z,1.03
2019-02-10T17:08:05.078Z,1.60
2019-02-10T17:10:33.628Z,3.03
2019-02-10T17:13:03.966Z,1.33
2019-02-10T17:15:32.514Z,1.40
2019-02-10T17:18:01.095Z,0.80
2019-02-10T17:20:29.658Z,0.53
2019-02-10T17:22:58.299Z,2.00
2019-02-10T17:25:28.626Z,2.80
2019-02-10T17:27:57.202Z,3.03
2019-02-10T17:30:25.752Z,4.47
2019-02-10T17:32:54.333Z,16.27
2019-02-10T17:35:22.902Z,29.03
2019-02-10T17:37:51.547Z,2.50
2019-02-10T17:40:29.041Z,0.97
2019-02-10T17:42:57.655Z,1.27
2019-02-10T17:45:26.226Z,12.87
2019-02-10T17:47:54.828Z,2.97
2019-02-10T17:50:23.674Z,2.53
2019-02-10T17:52:52.252Z,0.90
2019-02-10T17:55:20.786Z,1.10
2019-02-10T17:57:49.449Z,0.80
2019-02-10T18:00:20.061Z,1.77
2019-02-10T18:02:48.665Z,1.00
2019-02-10T18:05:18.742Z,6.63
2019-02-10T18:07:47.264Z,2.83
2019-02-10T18:10:16.154Z,1.40
2019-02-10T18:12:44.732Z,1.13
2019-02-10T18:15:17.670Z,1.80
2019-02-10T18:18:02.839Z,1.77
2019-02-10T18:20:44.554Z,2.50
2019-02-10T18:23:17.668Z,1.40
2019-02-10T18:25:50.606Z,1.00
2019-02-10T18:28:26.790Z,4.83
2019-02-10T18:30:59.407Z,4.63
2019-02-10T18:33:46.007Z,2.50
2019-02-10T18:36:18.962Z,2.47
2019-02-10T18:38:49.374Z,1.73
2019-02-10T18:41:24.879Z,1.87
2019-02-10T18:44:03.966Z,1.37
2019-02-10T18:46:52.197Z,1.47
2019-02-10T18:49:32.638Z,2.53
2019-02-10T18:52:11.544Z,1.13
2019-02-10T18:54:52.398Z,1.40
2019-02-10T18:57:22.662Z,2.47
2019-02-10T19:00:01.586Z,1.87
2019-02-10T19:02:40.480Z,4.43
2019-02-10T19:05:19.702Z,1.57
2019-02-10T19:08:01.362Z,1.53
2019-02-10T19:10:43.170Z,2.93
2019-02-10T19:13:22.499Z,1.50
2019-02-10T19:16:04.838Z,1.00
2019-02-10T19:18:37.635Z,2.07
2019-02-10T19:21:13.396Z,2.70
2019-02-10T19:23:55.038Z,0.87
2019-02-10T19:26:27.658Z,3.73
2019-02-10T19:28:57.887Z,1.33
2019-02-10T19:31:44.902Z,0.40
2019-02-10T19:34:15.254Z,0.77
2019-02-10T19:36:57.035Z,1.67
2019-02-10T19:39:30.051Z,2.10
2019-02-10T19:42:09.149Z,0.77
2019-02-10T19:44:40.733Z,1.50
2019-02-10T19:47:28.607Z,2.97
2019-02-10T19:49:58.909Z,1.27
2019-02-10T19:52:29.195Z,1.47
2019-02-10T19:54:59.974Z,1.33
2019-02-10T19:57:30.177Z,1.07
2019-02-10T20:00:12.107Z,3.37
2019-02-10T20:02:51.476Z,0.60
2019-02-10T20:05:21.877Z,1.13
2019-02-10T20:08:06.896Z,0.83
2019-02-10T20:10:37.280Z,1.70
2019-02-10T20:13:07.692Z,1.23
2019-02-10T20:15:38.023Z,3.03
2019-02-10T20:18:16.830Z,1.47
2019-02-10T20:20:52.794Z,1.40
2019-02-10T20:23:28.945Z,2.47
2019-02-10T20:26:17.256Z,1.40
2019-02-10T20:28:47.500Z,2.87
2019-02-10T20:31:32.622Z,2.80
2019-02-10T20:34:18.767Z,4.63
2019-02-10T20:36:51.710Z,2.00
2019-02-10T20:39:27.590Z,3.50
2019-02-10T20:42:12.092Z,2.17
2019-02-10T20:44:38.659Z,2.50
2019-02-10T20:47:08.866Z,1.70
2019-02-10T20:49:39.043Z,3.93
2019-02-10T20:52:09.256Z,1.73
2019-02-10T20:54:48.190Z,3.67
2019-02-10T20:57:18.403Z,2.27
2019-02-10T20:59:54.075Z,2.30
2019-02-10T21:02:33.019Z,3.53
2019-02-10T21:05:03.203Z,1.37
2019-02-10T21:07:49.397Z,1.97
2019-02-10T21:10:19.753Z,3.60
2019-02-10T21:12:55.435Z,2.70
2019-02-10T21:15:31.046Z,4.40
2019-02-10T21:18:01.254Z,2.37
2019-02-10T21:20:34.390Z,2.27
2019-02-10T21:23:07.394Z,1.57
2019-02-10T21:25:52.878Z,2.60
2019-02-10T21:28:36.863Z,1.43
2019-02-10T21:31:07.055Z,2.00
2019-02-10T21:33:46.070Z,1.50
2019-02-10T21:36:16.275Z,1.60
2019-02-10T21:38:53.459Z,3.20
2019-02-10T21:41:23.839Z,3.53
2019-02-10T21:43:56.746Z,2.23
2019-02-10T21:46:26.993Z,1.60
2019-02-10T21:48:57.141Z,1.57
2019-02-10T21:51:25.706Z,1.97
2019-02-10T21:53:54.298Z,1.73
2019-02-10T21:56:22.873Z,2.03
2019-02-10T21:58:51.455Z,1.93
2019-02-10T22:01:20.162Z,2.10
2019-02-10T22:03:48.739Z,4.00
2019-02-10T22:06:17.370Z,1.27
2019-02-10T22:08:45.991Z,1.47
2019-02-10T22:11:14.591Z,2.03
2019-02-10T22:13:43.174Z,2.33
2019-02-10T22:16:11.742Z,3.40
2019-02-10T22:18:40.366Z,1.80
2019-02-10T22:21:09.012Z,1.77
2019-02-10T22:23:37.627Z,2.40
2019-02-10T22:26:06.257Z,4.13
2019-02-10T22:28:34.930Z,2.20
2019-02-10T22:31:03.543Z,1.30
2019-02-10T22:33:32.250Z,1.87
2019-02-10T22:36:00.990Z,1.77
2019-02-10T22:38:29.699Z,1.77
2019-02-10T22:40:58.392Z,3.00
2019-02-10T22:43:28.636Z,1.87
2019-02-10T22:45:57.305Z,1.10
2019-02-10T22:48:25.902Z,1.50
2019-02-10T22:50:54.507Z,0.80
2019-02-10T22:53:23.057Z,3.03
2019-02-10T22:55:51.654Z,4.50
2019-02-10T22:58:20.287Z,3.63
2019-02-10T23:00:52.835Z,1.73
2019-02-10T23:03:21.519Z,2.47
2019-02-10T23:05:50.195Z,3.20
2019-02-10T23:08:18.813Z,2.37
2019-02-10T23:10:47.533Z,2.03
2019-02-10T23:13:16.111Z,2.43
2019-02-10T23:15:44.705Z,2.50
2019-02-10T23:18:13.275Z,2.13
2019-02-10T23:20:41.867Z,2.23
2019-02-10T23:23:10.481Z,2.20
2019-02-10T23:25:39.138Z,2.83
2019-02-10T23:28:07.759Z,1.57
2019-02-10T23:30:36.439Z,2.60
2019-02-10T23:33:05.078Z,1.73
2019-02-10T23:35:33.678Z,2.00
2019-02-10T23:38:02.315Z,2.50
2019-02-10T23:40:30.919Z,1.50
2019-02-10T23:43:02.251Z,2.17
2019-02-10T23:45:29.736Z,3.87
2019-02-10T23:47:58.441Z,1.37
2019-02-10T23:50:27.042Z,3.23
2019-02-10T23:52:55.736Z,3.33
2019-02-10T23:55:24.395Z,2.73
2019-02-10T23:57:52.986Z,2.07
